Time;durP1;ratioP1;P1;durP2;ratioP2;P2;SDS_P1;SDS_P2;PMS_P1;PMS_P2;Temp;Humidity;BMP_temperature;BMP_pressure;BME280_temperature;BME280_humidity;BME280_pressure;Samples;Min_cycle;Max_cycle;Signal;HPM_P1;HPM_P2
2020/12/28 00:01:40;;;;;;;2.00;1.80;;;3.30;99.90;;;;;;4970254;28;20190;-47
2020/12/28 00:04:05;;;;;;;3.33;1.87;;;3.30;99.90;;;;;;4978459;28;20651;-46
2020/12/28 00:06:31;;;;;;;2.97;2.30;;;3.30;99.90;;;;;;4986097;28;20192;-47
2020/12/28 00:08:56;;;;;;;1.83;1.67;;;3.40;99.90;;;;;;4964066;28;20813;-47
2020/12/28 00:11:22;;;;;;;2.63;1.80;;;3.40;99.90;;;;;;4965439;28;20216;-45
2020/12/28 00:13:47;;;;;;;2.50;1.90;;;3.40;99.90;;;;;;4961503;28;20644;-47
2020/12/28 00:16:14;;;;;;;1.93;1.73;;;3.40;99.90;;;;;;4961963;28;20192;-45
2020/12/28 00:18:40;;;;;;;2.77;2.03;;;3.40;99.90;;;;;;4973137;28;20174;-46
2020/12/28 00:21:06;;;;;;;2.37;2.17;;;3.40;99.90;;;;;;4985300;28;20578;-47
2020/12/28 00:23:31;;;;;;;2.23;1.90;;;3.40;99.90;;;;;;4963133;28;20226;-45
2020/12/28 00:25:57;;;;;;;2.23;2.03;;;3.40;99.90;;;;;;4964184;28;20224;-46
2020/12/28 00:28:22;;;;;;;2.27;2.10;;;3.40;99.90;;;;;;4966655;28;20698;-46
2020/12/28 00:30:48;;;;;;;1.50;1.40;;;3.40;99.90;;;;;;4956297;28;20812;-48
2020/12/28 00:33:13;;;;;;;1.90;1.60;;;3.40;99.90;;;;;;4976460;28;20202;-47
2020/12/28 00:35:38;;;;;;;2.40;1.80;;;3.40;99.90;;;;;;4981563;28;20166;-45
2020/12/28 00:38:04;;;;;;;2.03;1.87;;;3.40;99.90;;;;;;4985252;28;20654;-47
2020/12/28 00:40:29;;;;;;;1.60;1.50;;;3.40;99.90;;;;;;4975368;28;20255;-45
2020/12/28 00:42:55;;;;;;;1.30;1.20;;;3.40;99.90;;;;;;4983322;28;20284;-46
2020/12/28 00:45:20;;;;;;;2.03;1.83;;;3.40;99.90;;;;;;4985152;28;20185;-46
2020/12/28 00:47:46;;;;;;;1.90;1.80;;;3.40;99.90;;;;;;4966833;28;20280;-47
2020/12/28 00:50:11;;;;;;;2.03;1.80;;;3.50;99.90;;;;;;4976981;28;20205;-46
2020/12/28 00:52:37;;;;;;;2.63;1.80;;;3.50;99.90;;;;;;4981306;28;20236;-46
2020/12/28 00:55:02;;;;;;;1.67;1.57;;;3.50;99.90;;;;;;4984539;28;20170;-47
2020/12/28 00:57:28;;;;;;;1.70;1.47;;;3.50;99.90;;;;;;4983522;28;20173;-45
2020/12/28 00:59:55;;;;;;;2.30;1.80;;;3.50;99.90;;;;;;4982863;28;20725;-45
2020/12/28 01:02:20;;;;;;;1.57;1.47;;;3.50;99.90;;;;;;4984726;28;20200;-49
2020/12/28 01:04:46;;;;;;;1.87;1.57;;;3.50;99.90;;;;;;4964533;28;20384;-44
2020/12/28 01:07:14;;;;;;;1.70;1.60;;;3.50;99.90;;;;;;4982544;28;20239;-46
2020/12/28 01:09:39;;;;;;;2.70;1.90;;;3.50;99.90;;;;;;4972497;28;20233;-45
2020/12/28 01:12:04;;;;;;;2.43;1.67;;;3.50;99.90;;;;;;4984316;28;20224;-45
2020/12/28 01:14:30;;;;;;;2.30;1.60;;;3.50;99.90;;;;;;4982736;28;20180;-45
2020/12/28 01:16:55;;;;;;;1.73;1.63;;;3.50;99.90;;;;;;4982601;28;20375;-45
2020/12/28 01:19:21;;;;;;;1.77;1.67;;;3.60;99.90;;;;;;4973950;28;20193;-48
2020/12/28 01:21:46;;;;;;;2.03;1.83;;;3.60;99.90;;;;;;4973683;28;20383;-47
2020/12/28 01:24:19;;;;;;;1.37;1.27;;;3.60;99.90;;;;;;5119326;27;20520;-42
2020/12/28 01:26:44;;;;;;;1.60;1.50;;;3.60;99.90;;;;;;5096271;28;20328;-43
2020/12/28 01:29:10;;;;;;;1.70;1.60;;;3.60;99.90;;;;;;5100814;28;20173;-47
2020/12/28 01:31:36;;;;;;;1.67;1.57;;;3.60;99.90;;;;;;5095016;28;20169;-42
2020/12/28 01:34:02;;;;;;;1.73;1.63;;;3.60;99.90;;;;;;5076782;28;20212;-43
2020/12/28 01:36:27;;;;;;;1.23;1.13;;;3.60;99.90;;;;;;5089784;28;20508;-44
2020/12/28 01:38:53;;;;;;;1.33;1.23;;;3.60;99.90;;;;;;5097797;28;20165;-43
2020/12/28 01:41:18;;;;;;;1.63;1.40;;;3.60;99.90;;;;;;5100225;28;20166;-42
2020/12/28 01:43:44;;;;;;;1.33;1.23;;;3.60;99.90;;;;;;5095770;28;20857;-42
2020/12/28 01:46:11;;;;;;;1.60;1.33;;;3.60;99.90;;;;;;5100481;28;20184;-42
2020/12/28 01:48:37;;;;;;;1.83;1.40;;;3.60;99.90;;;;;;5086712;28;20169;-48
2020/12/28 01:51:03;;;;;;;1.43;1.33;;;3.60;99.90;;;;;;5086230;28;20173;-45
2020/12/28 01:53:29;;;;;;;1.67;1.27;;;3.60;99.90;;;;;;5098998;28;20190;-42
2020/12/28 01:56:05;;;;;;;1.83;1.20;;;3.70;99.90;;;;;;5099564;28;20356;-44
2020/12/28 01:58:31;;;;;;;1.23;1.10;;;3.70;99.90;;;;;;5099109;28;20279;-47
2020/12/28 02:00:57;;;;;;;1.37;1.27;;;3.70;99.90;;;;;;5098336;28;20766;-44
2020/12/28 02:03:24;;;;;;;1.77;1.20;;;3.70;99.90;;;;;;5090207;28;20734;-48
2020/12/28 02:05:50;;;;;;;2.00;1.30;;;3.70;99.90;;;;;;5081655;28;20185;-42
2020/12/28 02:08:16;;;;;;;1.03;1.00;;;3.70;99.90;;;;;;5091329;28;20240;-42
2020/12/28 02:10:41;;;;;;;1.17;1.07;;;3.70;99.90;;;;;;5095429;28;20481;-44
2020/12/28 02:13:07;;;;;;;1.53;1.20;;;3.80;99.90;;;;;;5099665;28;20280;-45
2020/12/28 02:15:33;;;;;;;1.00;1.00;;;3.80;99.90;;;;;;5090541;28;20205;-45
2020/12/28 02:17:58;;;;;;;1.13;1.03;;;3.80;99.90;;;;;;5070511;28;20375;-45
2020/12/28 02:20:24;;;;;;;1.00;0.90;;;3.80;99.90;;;;;;5083091;28;20645;-45
2020/12/28 02:22:49;;;;;;;1.20;1.10;;;3.80;99.90;;;;;;5075551;28;20218;-45
2020/12/28 02:25:15;;;;;;;1.43;1.27;;;3.80;99.90;;;;;;5097378;28;20173;-44
2020/12/28 02:27:40;;;;;;;1.30;1.20;;;3.80;99.90;;;;;;5095012;28;20548;-44
2020/12/28 02:30:06;;;;;;;0.90;0.90;;;3.80;99.90;;;;;;5099435;28;20170;-46
2020/12/28 02:32:31;;;;;;;1.30;1.20;;;3.80;99.90;;;;;;5096696;28;20204;-44
2020/12/28 02:34:57;;;;;;;1.10;1.00;;;3.80;99.90;;;;;;5087995;28;20406;-43
2020/12/28 02:37:23;;;;;;;1.13;1.03;;;3.70;99.90;;;;;;5068293;28;20190;-43
2020/12/28 02:39:48;;;;;;;1.83;1.50;;;3.70;99.90;;;;;;5076382;28;20279;-42
2020/12/28 02:42:14;;;;;;;1.50;1.33;;;3.70;99.90;;;;;;5085536;28;20638;-42
2020/12/28 02:44:39;;;;;;;1.63;1.40;;;3.70;99.90;;;;;;5081407;28;20528;-43
2020/12/28 02:47:05;;;;;;;0.90;0.90;;;3.70;99.90;;;;;;5086975;28;20627;-44
2020/12/28 02:49:30;;;;;;;1.20;1.10;;;3.70;99.90;;;;;;5072040;28;20205;-44
2020/12/28 02:51:56;;;;;;;1.03;1.03;;;3.70;99.90;;;;;;5065782;28;20210;-45
2020/12/28 02:54:21;;;;;;;1.23;1.13;;;3.70;99.90;;;;;;5078400;28;20204;-42
2020/12/28 02:56:47;;;;;;;1.30;1.20;;;3.70;99.90;;;;;;5081709;28;20496;-43
2020/12/28 02:59:12;;;;;;;1.30;1.20;;;3.70;99.90;;;;;;5085518;28;20177;-42
2020/12/28 03:01:38;;;;;;;1.13;1.10;;;3.70;99.90;;;;;;5081087;28;20645;-43
2020/12/28 03:04:04;;;;;;;1.40;1.30;;;3.70;99.90;;;;;;5084929;28;20277;-44
2020/12/28 03:06:30;;;;;;;1.30;1.17;;;3.80;99.90;;;;;;5077033;28;20170;-43
2020/12/28 03:08:55;;;;;;;1.40;1.30;;;3.80;99.90;;;;;;5063469;28;20474;-48
2020/12/28 03:11:20;;;;;;;1.33;1.23;;;3.80;99.90;;;;;;5083456;28;20174;-44
2020/12/28 03:13:46;;;;;;;1.10;1.00;;;3.80;99.90;;;;;;5081217;28;20379;-45
2020/12/28 03:16:12;;;;;;;1.73;1.17;;;3.80;99.90;;;;;;5085162;28;20215;-44
2020/12/28 03:18:37;;;;;;;0.90;0.90;;;3.80;99.90;;;;;;5071096;28;20215;-43
2020/12/28 03:21:03;;;;;;;5.80;1.20;;;3.80;99.90;;;;;;5075715;28;20227;-45
2020/12/28 03:23:28;;;;;;;1.50;1.30;;;3.90;99.90;;;;;;5067436;28;20220;-47
2020/12/28 03:25:54;;;;;;;1.30;1.20;;;3.90;99.90;;;;;;5074146;28;20178;-45
2020/12/28 03:28:19;;;;;;;1.23;1.13;;;3.90;99.90;;;;;;5084780;28;20226;-45
2020/12/28 03:30:45;;;;;;;1.00;0.90;;;3.90;99.90;;;;;;5080287;28;20170;-43
2020/12/28 03:33:10;;;;;;;0.90;0.90;;;3.90;99.90;;;;;;5084543;28;20288;-42
2020/12/28 03:35:36;;;;;;;1.27;1.10;;;3.90;99.90;;;;;;5081181;28;20189;-45
2020/12/28 03:38:01;;;;;;;1.20;1.13;;;3.90;99.90;;;;;;5069215;28;20274;-45
2020/12/28 03:40:26;;;;;;;2.67;0.90;;;3.90;99.90;;;;;;5074116;28;20653;-46
2020/12/28 03:42:52;;;;;;;1.20;1.13;;;3.90;99.90;;;;;;5081598;28;20481;-46
2020/12/28 03:45:18;;;;;;;1.10;1.10;;;3.90;99.90;;;;;;5084196;28;20178;-42
2020/12/28 03:47:43;;;;;;;1.00;0.90;;;3.90;99.90;;;;;;5075555;28;20197;-42
2020/12/28 03:50:09;;;;;;;1.10;1.00;;;4.00;99.90;;;;;;5069791;28;20179;-43
2020/12/28 03:52:39;;;;;;;1.20;1.10;;;4.00;99.90;;;;;;5080965;28;20202;-45
2020/12/28 03:55:05;;;;;;;0.80;0.80;;;4.00;99.90;;;;;;5068802;28;20689;-45
2020/12/28 03:57:31;;;;;;;1.10;0.90;;;4.00;99.90;;;;;;5065754;28;20189;-46
2020/12/28 03:59:56;;;;;;;0.80;0.80;;;4.00;99.90;;;;;;5082391;28;20398;-42
2020/12/28 04:02:22;;;;;;;1.20;1.10;;;4.00;99.90;;;;;;5083462;28;20217;-48
2020/12/28 04:04:47;;;;;;;0.70;0.70;;;4.00;99.90;;;;;;5080313;28;20689;-45
2020/12/28 04:07:13;;;;;;;1.37;1.27;;;4.00;99.90;;;;;;5084136;28;20169;-47
2020/12/28 04:09:38;;;;;;;1.30;1.20;;;4.00;99.90;;;;;;5069545;28;20178;-44
2020/12/28 04:12:03;;;;;;;0.90;0.90;;;4.00;99.90;;;;;;5070438;28;20264;-45
2020/12/28 04:14:29;;;;;;;1.43;1.00;;;4.10;99.90;;;;;;5081809;28;20646;-45
2020/12/28 04:16:54;;;;;;;1.37;0.97;;;4.00;99.90;;;;;;5081667;28;20421;-44
2020/12/28 04:19:20;;;;;;;1.53;1.20;;;4.10;99.90;;;;;;5071662;28;20181;-42
2020/12/28 04:21:45;;;;;;;0.90;0.80;;;4.10;99.90;;;;;;5073059;28;20730;-42
2020/12/28 04:24:15;;;;;;;1.20;1.00;;;4.10;99.90;;;;;;5072943;28;20376;-43
2020/12/28 04:26:42;;;;;;;0.90;0.90;;;4.10;99.90;;;;;;5061401;28;20844;-42
2020/12/28 04:29:07;;;;;;;1.30;1.20;;;4.10;99.90;;;;;;5074812;28;20170;-44
2020/12/28 04:31:32;;;;;;;1.13;1.00;;;4.00;99.90;;;;;;5081602;28;20521;-43
2020/12/28 04:33:58;;;;;;;1.00;0.90;;;4.10;99.90;;;;;;5082966;28;20205;-48
2020/12/28 04:36:23;;;;;;;1.07;1.00;;;4.00;99.90;;;;;;5083955;28;20257;-43
2020/12/28 04:38:49;;;;;;;1.07;1.07;;;4.00;99.90;;;;;;5081688;28;20174;-47
2020/12/28 04:41:14;;;;;;;1.00;0.63;;;4.00;99.90;;;;;;5065585;28;20218;-47
2020/12/28 04:43:40;;;;;;;1.17;1.07;;;4.00;99.90;;;;;;5071374;28;20217;-44
2020/12/28 04:46:06;;;;;;;1.13;1.00;;;4.00;99.90;;;;;;5083464;28;20224;-43
2020/12/28 04:48:32;;;;;;;3.50;1.43;;;4.00;99.90;;;;;;5070727;28;20185;-44
2020/12/28 04:51:00;;;;;;;1.20;1.10;;;3.90;99.90;;;;;;5073380;28;20174;-48
2020/12/28 04:53:27;;;;;;;2.97;1.13;;;3.90;99.90;;;;;;5082047;28;20668;-43
2020/12/28 04:55:53;;;;;;;1.23;0.93;;;3.90;99.90;;;;;;5080655;28;20182;-45
2020/12/28 04:58:18;;;;;;;1.00;0.90;;;3.90;99.90;;;;;;5066318;28;20658;-44
2020/12/28 05:00:45;;;;;;;1.40;1.30;;;3.90;99.90;;;;;;5070357;28;20272;-45
2020/12/28 05:03:11;;;;;;;1.13;1.03;;;3.90;99.90;;;;;;5071402;28;20217;-45
2020/12/28 05:05:44;;;;;;;0.87;0.70;;;3.90;99.90;;;;;;5074421;28;20174;-43
2020/12/28 05:08:09;;;;;;;2.13;0.97;;;3.90;99.90;;;;;;5042894;28;20913;-46
2020/12/28 05:10:35;;;;;;;0.90;0.90;;;3.90;99.90;;;;;;5039627;28;20310;-44
2020/12/28 05:13:08;;;;;;;0.90;0.90;;;3.90;99.90;;;;;;5038253;28;20211;-48
2020/12/28 05:15:34;;;;;;;2.00;1.23;;;4.00;99.90;;;;;;5060259;28;20650;-43
2020/12/28 05:18:00;;;;;;;0.80;0.80;;;4.00;99.90;;;;;;5057663;28;20479;-48
2020/12/28 05:20:26;;;;;;;1.13;1.00;;;4.00;99.90;;;;;;5071959;28;20265;-44
2020/12/28 05:22:54;;;;;;;0.87;0.87;;;4.00;99.90;;;;;;5062403;28;20541;-45
2020/12/28 05:25:22;;;;;;;0.70;0.70;;;4.10;99.90;;;;;;5062761;28;20198;-42
2020/12/28 05:27:49;;;;;;;0.90;0.73;;;4.10;99.90;;;;;;5059044;28;20482;-46
2020/12/28 05:30:16;;;;;;;0.70;0.70;;;4.10;99.90;;;;;;5058282;28;20277;-45
2020/12/28 05:32:48;;;;;;;0.80;0.80;;;4.10;99.90;;;;;;5071402;28;20279;-46
2020/12/28 05:35:16;;;;;;;0.90;0.90;;;4.10;99.90;;;;;;5082929;28;20264;-45
2020/12/28 05:37:50;;;;;;;0.77;0.73;;;4.20;99.90;;;;;;5070990;28;20186;-45
2020/12/28 05:40:17;;;;;;;0.80;0.80;;;4.20;99.90;;;;;;5062891;28;20179;-46
2020/12/28 05:42:50;;;;;;;0.60;0.60;;;4.20;99.90;;;;;;5057800;28;20206;-45
2020/12/28 05:45:16;;;;;;;0.83;0.83;;;4.20;99.90;;;;;;5055463;28;20195;-45
2020/12/28 05:47:46;;;;;;;1.63;1.00;;;4.30;99.90;;;;;;5066494;28;20256;-45
2020/12/28 05:50:12;;;;;;;0.90;0.90;;;4.20;99.90;;;;;;5069177;28;20258;-45
2020/12/28 05:52:45;;;;;;;0.73;0.73;;;4.20;99.90;;;;;;5072772;28;20722;-45
2020/12/28 05:55:16;;;;;;;1.07;0.87;;;4.20;99.90;;;;;;5062394;28;20182;-44
2020/12/28 05:57:42;;;;;;;0.80;0.80;;;4.20;99.90;;;;;;5058174;28;20424;-43
2020/12/28 06:00:08;;;;;;;0.67;0.67;;;4.20;99.90;;;;;;5049969;28;20195;-42
2020/12/28 06:02:37;;;;;;;0.73;0.73;;;4.20;99.90;;;;;;5070627;28;20202;-46
2020/12/28 06:05:04;;;;;;;1.70;0.97;;;4.20;99.90;;;;;;5082548;28;20190;-46
2020/12/28 06:07:29;;;;;;;0.70;0.70;;;4.20;99.90;;;;;;5078556;28;20178;-45
2020/12/28 06:09:56;;;;;;;2.57;0.90;;;4.20;99.90;;;;;;5058417;28;20567;-42
2020/12/28 06:12:22;;;;;;;1.07;0.93;;;4.20;99.90;;;;;;5065410;28;20934;-46
2020/12/28 06:14:47;;;;;;;0.73;0.73;;;4.20;99.90;;;;;;5062200;28;20396;-42
2020/12/28 06:17:13;;;;;;;0.57;0.57;;;4.10;99.90;;;;;;5061940;28;20198;-45
2020/12/28 06:19:40;;;;;;;0.80;0.80;;;4.10;99.90;;;;;;5065094;28;20710;-45
2020/12/28 06:22:22;;;;;;;0.50;0.50;;;4.10;99.90;;;;;;5082051;28;20182;-42
2020/12/28 06:25:02;;;;;;;0.80;0.80;;;4.10;99.90;;;;;;5063956;28;20283;-42
2020/12/28 06:27:33;;;;;;;1.07;0.90;;;4.10;99.90;;;;;;5075177;28;20174;-45
2020/12/28 06:30:21;;;;;;;1.07;0.97;;;4.10;99.90;;;;;;5068659;28;20840;-42
2020/12/28 06:33:00;;;;;;;1.80;0.97;;;4.00;99.90;;;;;;5064710;28;20207;-44
2020/12/28 06:35:28;;;;;;;1.03;0.90;;;4.00;99.90;;;;;;5072978;28;20202;-46
2020/12/28 06:37:54;;;;;;;0.90;0.87;;;4.00;99.90;;;;;;5063068;28;20197;-45
2020/12/28 06:40:34;;;;;;;1.27;0.90;;;3.90;99.90;;;;;;5060453;28;20244;-42
2020/12/28 06:43:16;;;;;;;1.97;0.90;;;3.90;99.90;;;;;;5063868;28;20225;-42
2020/12/28 06:45:45;;;;;;;1.60;0.87;;;3.90;99.90;;;;;;5059146;28;20417;-46
2020/12/28 06:48:25;;;;;;;1.03;0.93;;;3.90;99.90;;;;;;5057127;28;20219;-45
2020/12/28 06:50:55;;;;;;;2.23;1.00;;;3.80;99.90;;;;;;5075506;28;20277;-45
2020/12/28 06:53:27;;;;;;;1.67;0.83;;;3.80;99.90;;;;;;5086703;28;20236;-43
2020/12/28 06:55:53;;;;;;;1.43;1.10;;;3.80;99.90;;;;;;5067346;28;20433;-48
2020/12/28 06:58:19;;;;;;;1.67;1.00;;;3.80;99.90;;;;;;5066394;28;20224;-45
2020/12/28 07:00:45;;;;;;;1.10;1.00;;;3.80;99.90;;;;;;5056124;28;20198;-44
2020/12/28 07:03:17;;;;;;;1.00;0.93;;;3.70;99.90;;;;;;5060329;28;20210;-43
2020/12/28 07:05:43;;;;;;;3.53;1.40;;;3.70;99.90;;;;;;5074195;28;20279;-49
2020/12/28 07:08:09;;;;;;;1.13;0.93;;;3.70;99.90;;;;;;5085179;28;20181;-46
2020/12/28 07:10:36;;;;;;;1.17;1.07;;;3.70;99.90;;;;;;5076422;28;20261;-44
2020/12/28 07:13:05;;;;;;;4.10;1.30;;;3.60;99.90;;;;;;5059661;28;20210;-46
2020/12/28 07:15:31;;;;;;;1.37;1.20;;;3.60;99.90;;;;;;5045461;28;20244;-47
2020/12/28 07:18:06;;;;;;;1.07;0.87;;;3.60;99.90;;;;;;5052157;28;20206;-44
2020/12/28 07:20:32;;;;;;;3.07;1.40;;;3.60;99.90;;;;;;5051405;28;20187;-42
2020/12/28 07:22:57;;;;;;;1.33;1.13;;;3.60;99.90;;;;;;5068666;28;20224;-47
2020/12/28 07:25:23;;;;;;;2.33;1.37;;;3.50;99.90;;;;;;5082898;28;20618;-46
2020/12/28 07:27:51;;;;;;;1.30;1.20;;;3.50;99.90;;;;;;5056083;28;20356;-44
2020/12/28 07:30:17;;;;;;;0.90;0.90;;;3.50;99.90;;;;;;5073760;28;20190;-47
2020/12/28 07:32:42;;;;;;;1.50;1.40;;;3.50;99.90;;;;;;5061053;28;20214;-46
2020/12/28 07:35:08;;;;;;;1.97;1.10;;;3.50;99.90;;;;;;5068206;28;20199;-50
2020/12/28 07:37:41;;;;;;;1.57;1.43;;;3.50;99.90;;;;;;5084979;28;20216;-44
2020/12/28 07:40:07;;;;;;;3.77;1.33;;;3.50;99.90;;;;;;5067667;28;20182;-45
2020/12/28 07:42:33;;;;;;;1.63;1.53;;;3.50;99.90;;;;;;5059412;28;20549;-45
2020/12/28 07:45:05;;;;;;;1.40;1.17;;;3.50;99.90;;;;;;5063140;28;20426;-43
2020/12/28 07:47:47;;;;;;;2.57;1.27;;;3.50;99.90;;;;;;5055853;28;20206;-47
2020/12/28 07:50:15;;;;;;;2.30;1.30;;;3.40;99.90;;;;;;5073411;28;20611;-45
2020/12/28 07:53:14;;;;;;;1.30;1.20;;;3.40;99.90;;;;;;5056505;28;20694;-47
2020/12/28 07:55:47;;;;;;;1.70;1.57;;;3.50;99.90;;;;;;5058134;28;20198;-45
2020/12/28 07:58:36;;;;;;;1.40;1.30;;;3.50;99.90;;;;;;5060974;28;20237;-44
2020/12/28 08:01:09;;;;;;;1.60;1.43;;;3.50;99.90;;;;;;5072469;28;20256;-43
2020/12/28 08:03:41;;;;;;;1.53;1.40;;;3.40;99.90;;;;;;5051783;28;20577;-42
2020/12/28 08:06:08;;;;;;;3.87;1.60;;;3.50;99.90;;;;;;5076624;28;20675;-45
2020/12/28 08:08:34;;;;;;;3.60;1.50;;;3.40;99.90;;;;;;5068247;28;20178;-44
2020/12/28 08:11:01;;;;;;;1.13;1.10;;;3.40;99.90;;;;;;5061872;28;20419;-45
2020/12/28 08:13:32;;;;;;;1.90;1.57;;;3.40;99.90;;;;;;5059571;28;20640;-45
2020/12/28 08:16:14;;;;;;;2.07;1.50;;;3.50;99.90;;;;;;5060062;28;20172;-46
2020/12/28 08:18:50;;;;;;;1.47;1.20;;;3.50;99.90;;;;;;5061795;28;20197;-46
2020/12/28 08:21:16;;;;;;;1.60;1.50;;;3.50;99.90;;;;;;5062689;28;20232;-47
2020/12/28 08:23:56;;;;;;;1.90;1.40;;;3.50;99.90;;;;;;5060444;28;20219;-46
2020/12/28 08:26:23;;;;;;;1.40;1.30;;;3.50;99.90;;;;;;5068286;28;20187;-44
2020/12/28 08:28:50;;;;;;;1.60;1.40;;;3.40;99.90;;;;;;5056654;28;20278;-46
2020/12/28 08:31:16;;;;;;;3.10;1.50;;;3.40;99.90;;;;;;5072549;28;20163;-43
2020/12/28 08:33:41;;;;;;;1.40;1.23;;;3.40;99.90;;;;;;5062259;28;20218;-45
2020/12/28 08:36:07;;;;;;;3.40;1.40;;;3.40;99.90;;;;;;5057408;28;20193;-46
2020/12/28 08:38:33;;;;;;;2.43;1.30;;;3.40;99.90;;;;;;5063938;28;20190;-46
2020/12/28 08:40:59;;;;;;;2.07;1.67;;;3.40;99.90;;;;;;5082041;28;20158;-43
2020/12/28 08:43:25;;;;;;;1.77;1.60;;;3.40;99.90;;;;;;5063360;28;20248;-49
2020/12/28 08:46:02;;;;;;;2.03;1.83;;;3.50;99.90;;;;;;5037646;28;20972;-45
2020/12/28 08:48:27;;;;;;;1.83;1.50;;;3.40;99.90;;;;;;5038787;28;20198;-48
2020/12/28 08:50:53;;;;;;;2.17;1.50;;;3.40;99.90;;;;;;5063429;28;20261;-46
2020/12/28 08:53:22;;;;;;;2.33;1.60;;;3.40;99.90;;;;;;5051096;28;20202;-44
2020/12/28 08:55:58;;;;;;;2.57;1.80;;;3.40;99.90;;;;;;5071628;28;20527;-44
2020/12/28 09:01:03;;;;;;;3.33;1.80;;;3.30;99.90;;;;;;5253591;22;20622;-47
2020/12/28 09:03:29;;;;;;;1.63;1.53;;;3.30;99.90;;;;;;5023020;28;20679;-48
2020/12/28 09:05:55;;;;;;;2.17;1.90;;;3.30;99.90;;;;;;5013060;28;20677;-49
2020/12/28 09:08:20;;;;;;;2.07;1.70;;;3.20;99.90;;;;;;5005178;28;20259;-46
2020/12/28 09:10:46;;;;;;;3.20;1.67;;;3.20;99.90;;;;;;4995423;28;20731;-49
2020/12/28 09:13:11;;;;;;;3.43;1.70;;;3.20;99.90;;;;;;4995738;28;20275;-48
2020/12/28 09:15:36;;;;;;;2.00;1.80;;;3.20;99.90;;;;;;5007259;28;20185;-47
2020/12/28 09:18:02;;;;;;;3.10;2.13;;;3.20;99.90;;;;;;5012775;28;20658;-47
2020/12/28 09:20:27;;;;;;;3.50;2.00;;;3.20;99.90;;;;;;5010930;28;20211;-45
2020/12/28 09:22:53;;;;;;;2.67;1.80;;;3.20;99.90;;;;;;4999556;28;20752;-48
2020/12/28 09:25:18;;;;;;;2.43;1.97;;;3.20;99.90;;;;;;5013390;28;20269;-48
2020/12/28 09:27:44;;;;;;;1.93;1.80;;;3.20;99.90;;;;;;5005697;28;20271;-48
2020/12/28 09:30:09;;;;;;;2.10;1.90;;;3.20;99.90;;;;;;4992693;28;20357;-47
2020/12/28 09:32:35;;;;;;;2.73;1.77;;;3.20;99.90;;;;;;5011538;28;20640;-44
2020/12/28 09:35:00;;;;;;;2.00;1.80;;;3.20;99.90;;;;;;4993947;28;20259;-47
2020/12/28 09:37:26;;;;;;;3.33;2.20;;;3.30;99.90;;;;;;5001993;28;20242;-50
2020/12/28 09:39:51;;;;;;;2.97;2.00;;;3.30;99.90;;;;;;4994729;28;20211;-49
2020/12/28 09:42:17;;;;;;;3.83;2.30;;;3.30;99.90;;;;;;5016495;28;20451;-48
2020/12/28 09:44:42;;;;;;;2.67;2.10;;;3.30;99.90;;;;;;5020660;28;20180;-49
2020/12/28 09:47:08;;;;;;;2.97;2.43;;;3.30;99.90;;;;;;5007597;28;20188;-48
2020/12/28 09:49:33;;;;;;;2.93;2.17;;;3.30;99.90;;;;;;5015720;28;20605;-47
2020/12/28 09:51:59;;;;;;;3.33;2.03;;;3.40;99.90;;;;;;5024527;28;20636;-51
2020/12/28 09:54:25;;;;;;;2.23;1.80;;;3.40;99.90;;;;;;5010380;28;20192;-52
2020/12/28 09:56:51;;;;;;;2.37;1.90;;;3.40;99.90;;;;;;4999936;28;20189;-46
2020/12/28 09:59:16;;;;;;;1.97;1.77;;;3.40;99.90;;;;;;5003902;28;20176;-48
2020/12/28 10:01:46;;;;;;;3.27;2.17;;;3.50;99.90;;;;;;5010166;28;20196;-47
2020/12/28 10:04:12;;;;;;;3.13;2.60;;;3.40;99.90;;;;;;5011958;28;20262;-47
2020/12/28 10:06:38;;;;;;;3.63;2.50;;;3.50;99.90;;;;;;5024345;28;20177;-50
2020/12/28 10:09:06;;;;;;;4.00;2.40;;;3.50;99.90;;;;;;5013551;28;20173;-48
2020/12/28 10:11:32;;;;;;;2.70;2.50;;;3.50;99.90;;;;;;4995745;28;20188;-52
2020/12/28 10:13:58;;;;;;;2.53;2.13;;;3.60;99.90;;;;;;5003830;28;20303;-47
2020/12/28 10:16:24;;;;;;;3.27;2.20;;;3.60;99.90;;;;;;5002637;28;22745;-48
2020/12/28 10:18:50;;;;;;;3.27;2.63;;;3.60;99.90;;;;;;5001380;28;20200;-46
2020/12/28 10:21:16;;;;;;;2.90;2.13;;;3.60;99.90;;;;;;5007387;28;20181;-49
2020/12/28 10:23:42;;;;;;;5.87;2.23;;;3.60;99.90;;;;;;5010149;28;20669;-50
2020/12/28 10:26:18;;;;;;;3.63;2.23;;;3.60;99.90;;;;;;4995520;28;20208;-52
2020/12/28 10:28:43;;;;;;;3.13;2.40;;;3.60;99.90;;;;;;5005862;28;20184;-48
2020/12/28 10:31:11;;;;;;;2.97;2.53;;;3.70;99.90;;;;;;4999385;28;20780;-50
2020/12/28 10:33:40;;;;;;;2.87;2.00;;;3.70;99.90;;;;;;5002679;28;20195;-51
2020/12/28 10:36:12;;;;;;;4.30;3.00;;;3.70;99.90;;;;;;5005064;28;20260;-50
2020/12/28 10:38:37;;;;;;;2.57;1.97;;;3.80;99.90;;;;;;5009596;28;20272;-46
2020/12/28 10:41:03;;;;;;;2.30;2.03;;;3.80;99.90;;;;;;4992643;28;20496;-50
2020/12/28 10:43:28;;;;;;;2.93;2.13;;;3.90;99.90;;;;;;5005878;28;20215;-49
2020/12/28 10:45:54;;;;;;;3.57;2.57;;;4.00;99.90;;;;;;5004363;28;20185;-51
2020/12/28 10:48:19;;;;;;;5.57;2.67;;;4.00;99.90;;;;;;4997188;28;20897;-49
2020/12/28 10:50:44;;;;;;;3.03;2.40;;;4.00;99.90;;;;;;5005903;28;20223;-53
2020/12/28 10:53:10;;;;;;;2.90;2.40;;;4.10;99.90;;;;;;5002817;28;20200;-45
2020/12/28 10:55:35;;;;;;;2.57;2.20;;;4.10;99.90;;;;;;4997573;28;20185;-49
2020/12/28 10:58:01;;;;;;;2.97;2.27;;;4.20;99.90;;;;;;5002185;28;20571;-51
2020/12/28 11:00:26;;;;;;;2.40;2.20;;;4.20;99.90;;;;;;5010592;28;20228;-46
2020/12/28 11:02:52;;;;;;;3.23;2.40;;;4.30;99.90;;;;;;5008498;28;20680;-53
2020/12/28 11:05:17;;;;;;;2.87;2.53;;;4.30;99.90;;;;;;5001239;28;20191;-48
2020/12/28 11:07:43;;;;;;;3.67;2.27;;;4.30;99.90;;;;;;5007072;28;20234;-52
2020/12/28 11:10:08;;;;;;;2.47;2.10;;;4.30;99.90;;;;;;5025034;28;20200;-49
2020/12/28 11:12:34;;;;;;;2.87;2.13;;;4.30;99.90;;;;;;4998012;28;20189;-49
2020/12/28 11:14:59;;;;;;;3.63;2.50;;;4.40;99.90;;;;;;5019958;28;20173;-49
2020/12/28 11:17:25;;;;;;;4.07;2.13;;;4.40;99.90;;;;;;5007641;28;20553;-53
2020/12/28 11:19:50;;;;;;;4.50;2.60;;;4.40;99.90;;;;;;5000606;28;20216;-48
2020/12/28 11:22:15;;;;;;;3.67;2.70;;;4.40;99.90;;;;;;5002010;28;20216;-54
2020/12/28 11:24:41;;;;;;;4.27;2.60;;;4.40;99.90;;;;;;5011703;28;20186;-46
2020/12/28 11:27:06;;;;;;;3.30;2.57;;;4.40;99.90;;;;;;5013859;28;20181;-48
2020/12/28 11:29:32;;;;;;;3.20;2.50;;;4.40;99.90;;;;;;4990080;28;20212;-45
2020/12/28 11:31:57;;;;;;;2.63;2.20;;;4.40;99.90;;;;;;5002133;28;20185;-52
2020/12/28 11:34:23;;;;;;;3.10;2.80;;;4.40;99.90;;;;;;5006018;28;20204;-55
2020/12/28 11:36:48;;;;;;;3.67;2.73;;;4.40;99.90;;;;;;5004282;28;20168;-52
2020/12/28 11:39:14;;;;;;;3.87;2.60;;;4.40;99.90;;;;;;5005378;28;20651;-46
2020/12/28 11:41:40;;;;;;;3.33;2.77;;;4.40;99.90;;;;;;5003733;28;20307;-54
2020/12/28 11:44:09;;;;;;;4.33;2.57;;;4.40;99.90;;;;;;4995352;28;20566;-50
2020/12/28 11:46:35;;;;;;;2.97;2.30;;;4.40;99.90;;;;;;5000862;28;20183;-51
2020/12/28 11:49:00;;;;;;;3.73;2.03;;;4.40;99.90;;;;;;5010844;28;20196;-52
2020/12/28 11:51:26;;;;;;;3.70;2.70;;;4.40;99.90;;;;;;5011029;28;20192;-50
2020/12/28 11:53:51;;;;;;;2.53;2.30;;;4.40;99.90;;;;;;5018331;28;20189;-46
2020/12/28 11:56:18;;;;;;;2.70;2.50;;;4.40;99.90;;;;;;5021201;28;20215;-46
2020/12/28 11:58:44;;;;;;;3.93;1.93;;;4.40;99.90;;;;;;5002194;28;20207;-53
2020/12/28 12:01:15;;;;;;;4.10;2.57;;;4.40;99.90;;;;;;5007263;28;20224;-46
2020/12/28 12:03:43;;;;;;;3.20;2.30;;;4.40;99.90;;;;;;4994842;28;20235;-49
2020/12/28 12:06:21;;;;;;;3.57;2.50;;;4.50;99.90;;;;;;4998799;28;20773;-47
2020/12/28 12:11:33;;;;;;;3.10;2.80;;;4.60;99.90;;;;;;5008605;28;20903;-46
2020/12/28 12:13:59;;;;;;;2.40;2.20;;;4.60;99.90;;;;;;5001218;28;20184;-46
2020/12/28 12:16:26;;;;;;;3.67;2.80;;;4.60;99.90;;;;;;4989922;28;20211;-59
2020/12/28 12:18:52;;;;;;;4.03;2.70;;;4.60;99.90;;;;;;5006629;28;20287;-49
2020/12/28 12:21:17;;;;;;;3.40;2.70;;;4.60;99.90;;;;;;4987206;28;20351;-57
2020/12/28 12:23:43;;;;;;;3.13;2.83;;;4.60;99.90;;;;;;5007447;28;20219;-47
2020/12/28 12:26:08;;;;;;;3.30;2.40;;;4.60;99.90;;;;;;5008247;28;20189;-52
2020/12/28 12:28:34;;;;;;;3.37;2.60;;;4.60;99.90;;;;;;5009585;28;20172;-52
2020/12/28 12:31:00;;;;;;;3.27;2.40;;;4.60;99.90;;;;;;4999690;28;20223;-50
2020/12/28 12:33:25;;;;;;;3.47;2.67;;;4.60;99.90;;;;;;5016520;28;20199;-53
2020/12/28 12:35:51;;;;;;;2.77;2.40;;;4.60;99.90;;;;;;4997778;28;20188;-54
2020/12/28 12:38:16;;;;;;;4.03;2.97;;;4.60;99.90;;;;;;5006558;28;20278;-51
2020/12/28 12:40:41;;;;;;;3.73;3.00;;;4.70;99.90;;;;;;5008574;28;20212;-50
2020/12/28 12:43:07;;;;;;;3.43;3.10;;;4.70;99.90;;;;;;5004094;28;20647;-49
2020/12/28 12:45:32;;;;;;;3.10;2.80;;;4.60;99.90;;;;;;4988602;28;20193;-49
2020/12/28 12:47:58;;;;;;;3.20;2.83;;;4.70;99.90;;;;;;4994145;28;20192;-47
2020/12/28 12:50:23;;;;;;;5.07;2.80;;;4.60;99.90;;;;;;4994004;28;20262;-49
2020/12/28 12:52:49;;;;;;;3.27;2.97;;;4.70;99.90;;;;;;4997198;28;20184;-50
2020/12/28 12:55:14;;;;;;;3.87;2.60;;;4.70;99.90;;;;;;5013150;28;20275;-52
2020/12/28 12:57:40;;;;;;;3.40;3.07;;;4.70;99.90;;;;;;5001633;28;20189;-49
2020/12/28 13:00:06;;;;;;;4.33;3.20;;;4.70;99.90;;;;;;5009056;28;20212;-50
2020/12/28 13:02:33;;;;;;;7.50;2.97;;;4.70;99.90;;;;;;4989302;28;20184;-52